sensor_id;sensor_type;location;lat;lon;timestamp;P1;durP1;ratioP1;P2;durP2;ratioP2
65799;SDS011;52544;48.116;11.660;2024-03-17T00:01:18;3.40;;;2.50;;
65799;SDS011;52544;48.116;11.660;2024-03-17T00:03:43;4.50;;;2.40;;
65799;SDS011;52544;48.116;11.660;2024-03-17T00:06:09;3.10;;;2.30;;
65799;SDS011;52544;48.116;11.660;2024-03-17T00:08:35;5.88;;;3.10;;
65799;SDS011;52544;48.116;11.660;2024-03-17T00:11:00;3.65;;;2.42;;
65799;SDS011;52544;48.116;11.660;2024-03-17T00:13:26;4.07;;;2.83;;
65799;SDS011;52544;48.116;11.660;2024-03-17T00:15:51;8.52;;;3.05;;
65799;SDS011;52544;48.116;11.660;2024-03-17T00:18:17;4.45;;;2.85;;
65799;SDS011;52544;48.116;11.660;2024-03-17T00:20:43;6.45;;;2.90;;
65799;SDS011;52544;48.116;11.660;2024-03-17T00:23:09;4.55;;;2.90;;
65799;SDS011;52544;48.116;11.660;2024-03-17T00:25:36;3.95;;;2.70;;
65799;SDS011;52544;48.116;11.660;2024-03-17T00:28:02;5.93;;;3.00;;
65799;SDS011;52544;48.116;11.660;2024-03-17T00:30:28;4.88;;;2.92;;
65799;SDS011;52544;48.116;11.660;2024-03-17T00:32:54;4.63;;;2.80;;
65799;SDS011;52544;48.116;11.660;2024-03-17T00:35:19;3.97;;;2.50;;
65799;SDS011;52544;48.116;11.660;2024-03-17T00:37:47;4.45;;;2.47;;
65799;SDS011;52544;48.116;11.660;2024-03-17T00:40:14;4.55;;;2.47;;
65799;SDS011;52544;48.116;11.660;2024-03-17T00:42:39;4.13;;;2.42;;
65799;SDS011;52544;48.116;11.660;2024-03-17T00:45:06;4.63;;;2.80;;
65799;SDS011;52544;48.116;11.660;2024-03-17T00:47:32;3.92;;;2.50;;
65799;SDS011;52544;48.116;11.660;2024-03-17T00:49:57;5.07;;;2.60;;
65799;SDS011;52544;48.116;11.660;2024-03-17T00:52:23;5.07;;;2.10;;
65799;SDS011;52544;48.116;11.660;2024-03-17T00:54:48;5.18;;;2.50;;
65799;SDS011;52544;48.116;11.660;2024-03-17T00:57:14;4.35;;;2.67;;
65799;SDS011;52544;48.116;11.660;2024-03-17T00:59:40;4.63;;;2.50;;
65799;SDS011;52544;48.116;11.660;2024-03-17T01:02:08;5.28;;;2.65;;
65799;SDS011;52544;48.116;11.660;2024-03-17T01:04:33;4.90;;;2.50;;
65799;SDS011;52544;48.116;11.660;2024-03-17T01:06:59;4.30;;;2.60;;
65799;SDS011;52544;48.116;11.660;2024-03-17T01:09:25;3.90;;;2.50;;
65799;SDS011;52544;48.116;11.660;2024-03-17T01:11:50;3.50;;;2.20;;
65799;SDS011;52544;48.116;11.660;2024-03-17T01:14:15;3.42;;;2.22;;
65799;SDS011;52544;48.116;11.660;2024-03-17T01:16:41;4.68;;;2.60;;
65799;SDS011;52544;48.116;11.660;2024-03-17T01:19:06;3.60;;;2.35;;
65799;SDS011;52544;48.116;11.660;2024-03-17T01:21:32;4.28;;;2.50;;
65799;SDS011;52544;48.116;11.660;2024-03-17T01:23:57;4.93;;;2.20;;
65799;SDS011;52544;48.116;11.660;2024-03-17T01:26:23;4.45;;;2.70;;
65799;SDS011;52544;48.116;11.660;2024-03-17T01:28:49;3.55;;;2.60;;
65799;SDS011;52544;48.116;11.660;2024-03-17T01:31:14;5.57;;;2.65;;
65799;SDS011;52544;48.116;11.660;2024-03-17T01:33:40;4.53;;;2.25;;
65799;SDS011;52544;48.116;11.660;2024-03-17T01:36:05;5.25;;;2.60;;
65799;SDS011;52544;48.116;11.660;2024-03-17T01:38:31;4.45;;;2.97;;
65799;SDS011;52544;48.116;11.660;2024-03-17T01:40:58;4.47;;;2.55;;
65799;SDS011;52544;48.116;11.660;2024-03-17T01:43:24;5.15;;;2.53;;
65799;SDS011;52544;48.116;11.660;2024-03-17T01:45:49;4.82;;;2.08;;
65799;SDS011;52544;48.116;11.660;2024-03-17T01:48:15;6.80;;;2.22;;
65799;SDS011;52544;48.116;11.660;2024-03-17T01:50:44;3.65;;;2.30;;
65799;SDS011;52544;48.116;11.660;2024-03-17T01:53:11;4.60;;;2.80;;
65799;SDS011;52544;48.116;11.660;2024-03-17T01:55:40;5.28;;;2.42;;
65799;SDS011;52544;48.116;11.660;2024-03-17T01:58:08;3.85;;;2.20;;
65799;SDS011;52544;48.116;11.660;2024-03-17T02:00:35;4.38;;;2.20;;
65799;SDS011;52544;48.116;11.660;2024-03-17T02:03:11;4.63;;;2.63;;
65799;SDS011;52544;48.116;11.660;2024-03-17T02:05:38;4.50;;;2.50;;
65799;SDS011;52544;48.116;11.660;2024-03-17T02:08:07;2.78;;;2.28;;
65799;SDS011;52544;48.116;11.660;2024-03-17T02:10:33;3.17;;;2.33;;
65799;SDS011;52544;48.116;11.660;2024-03-17T02:12:59;4.03;;;2.30;;
65799;SDS011;52544;48.116;11.660;2024-03-17T02:15:26;4.18;;;2.60;;
65799;SDS011;52544;48.116;11.660;2024-03-17T02:17:51;4.22;;;2.40;;
65799;SDS011;52544;48.116;11.660;2024-03-17T02:20:17;3.53;;;2.05;;
65799;SDS011;52544;48.116;11.660;2024-03-17T02:22:43;4.05;;;2.50;;
65799;SDS011;52544;48.116;11.660;2024-03-17T02:25:08;4.20;;;2.83;;
65799;SDS011;52544;48.116;11.660;2024-03-17T02:27:37;4.13;;;2.50;;
65799;SDS011;52544;48.116;11.660;2024-03-17T02:30:03;3.80;;;2.45;;
65799;SDS011;52544;48.116;11.660;2024-03-17T02:32:34;7.35;;;2.63;;
65799;SDS011;52544;48.116;11.660;2024-03-17T02:35:00;5.45;;;2.58;;
65799;SDS011;52544;48.116;11.660;2024-03-17T02:37:26;3.28;;;2.38;;
65799;SDS011;52544;48.116;11.660;2024-03-17T02:39:52;4.25;;;2.80;;
65799;SDS011;52544;48.116;11.660;2024-03-17T02:42:17;4.97;;;3.10;;
65799;SDS011;52544;48.116;11.660;2024-03-17T02:44:43;4.47;;;2.38;;
65799;SDS011;52544;48.116;11.660;2024-03-17T02:47:09;3.70;;;2.50;;
65799;SDS011;52544;48.116;11.660;2024-03-17T02:49:34;3.85;;;2.30;;
65799;SDS011;52544;48.116;11.660;2024-03-17T02:52:04;4.75;;;2.85;;
65799;SDS011;52544;48.116;11.660;2024-03-17T02:54:37;5.05;;;3.08;;
65799;SDS011;52544;48.116;11.660;2024-03-17T02:57:04;4.07;;;2.40;;
65799;SDS011;52544;48.116;11.660;2024-03-17T02:59:31;5.60;;;2.95;;
65799;SDS011;52544;48.116;11.660;2024-03-17T03:01:57;4.47;;;2.70;;
65799;SDS011;52544;48.116;11.660;2024-03-17T03:04:23;3.15;;;2.70;;
65799;SDS011;52544;48.116;11.660;2024-03-17T03:06:49;8.55;;;3.00;;
65799;SDS011;52544;48.116;11.660;2024-03-17T03:09:14;3.85;;;2.70;;
65799;SDS011;52544;48.116;11.660;2024-03-17T03:11:46;5.68;;;2.83;;
65799;SDS011;52544;48.116;11.660;2024-03-17T03:14:12;4.78;;;2.90;;
65799;SDS011;52544;48.116;11.660;2024-03-17T03:16:38;4.40;;;2.42;;
65799;SDS011;52544;48.116;11.660;2024-03-17T03:19:03;4.38;;;2.55;;
65799;SDS011;52544;48.116;11.660;2024-03-17T03:21:30;5.15;;;2.50;;
65799;SDS011;52544;48.116;11.660;2024-03-17T03:23:56;3.63;;;2.42;;
65799;SDS011;52544;48.116;11.660;2024-03-17T03:26:21;4.47;;;2.95;;
65799;SDS011;52544;48.116;11.660;2024-03-17T03:28:48;5.38;;;2.92;;
65799;SDS011;52544;48.116;11.660;2024-03-17T03:31:14;4.20;;;2.65;;
65799;SDS011;52544;48.116;11.660;2024-03-17T03:33:40;5.00;;;2.67;;
65799;SDS011;52544;48.116;11.660;2024-03-17T03:36:07;3.00;;;2.30;;
65799;SDS011;52544;48.116;11.660;2024-03-17T03:38:34;4.22;;;2.88;;
65799;SDS011;52544;48.116;11.660;2024-03-17T03:41:05;5.47;;;2.60;;
65799;SDS011;52544;48.116;11.660;2024-03-17T03:43:34;5.05;;;2.88;;
65799;SDS011;52544;48.116;11.660;2024-03-17T03:46:01;4.93;;;3.20;;
65799;SDS011;52544;48.116;11.660;2024-03-17T03:48:27;4.70;;;2.70;;
65799;SDS011;52544;48.116;11.660;2024-03-17T03:50:52;4.95;;;2.92;;
65799;SDS011;52544;48.116;11.660;2024-03-17T03:53:19;6.00;;;3.05;;
65799;SDS011;52544;48.116;11.660;2024-03-17T03:55:44;4.03;;;2.80;;
65799;SDS011;52544;48.116;11.660;2024-03-17T03:58:10;4.40;;;2.78;;
65799;SDS011;52544;48.116;11.660;2024-03-17T04:00:37;5.03;;;3.25;;
65799;SDS011;52544;48.116;11.660;2024-03-17T04:03:04;7.60;;;3.33;;
65799;SDS011;52544;48.116;11.660;2024-03-17T04:05:30;5.10;;;2.90;;
65799;SDS011;52544;48.116;11.660;2024-03-17T04:07:55;4.40;;;2.60;;
65799;SDS011;52544;48.116;11.660;2024-03-17T04:10:21;4.93;;;2.83;;
65799;SDS011;52544;48.116;11.660;2024-03-17T04:12:47;4.78;;;3.03;;
65799;SDS011;52544;48.116;11.660;2024-03-17T04:15:12;6.30;;;2.85;;
65799;SDS011;52544;48.116;11.660;2024-03-17T04:17:39;5.03;;;3.13;;
65799;SDS011;52544;48.116;11.660;2024-03-17T04:20:05;6.32;;;3.28;;
65799;SDS011;52544;48.116;11.660;2024-03-17T04:22:33;4.88;;;2.70;;
65799;SDS011;52544;48.116;11.660;2024-03-17T04:24:59;5.78;;;3.10;;
65799;SDS011;52544;48.116;11.660;2024-03-17T04:27:25;4.55;;;2.83;;
65799;SDS011;52544;48.116;11.660;2024-03-17T04:29:53;4.65;;;2.92;;
65799;SDS011;52544;48.116;11.660;2024-03-17T04:32:20;7.38;;;3.15;;
65799;SDS011;52544;48.116;11.660;2024-03-17T04:34:46;5.88;;;3.22;;
65799;SDS011;52544;48.116;11.660;2024-03-17T04:37:12;6.10;;;3.05;;
65799;SDS011;52544;48.116;11.660;2024-03-17T04:39:41;4.57;;;2.92;;
65799;SDS011;52544;48.116;11.660;2024-03-17T04:42:11;5.22;;;3.00;;
65799;SDS011;52544;48.116;11.660;2024-03-17T04:44:39;5.30;;;3.00;;
65799;SDS011;52544;48.116;11.660;2024-03-17T04:47:05;7.57;;;3.78;;
65799;SDS011;52544;48.116;11.660;2024-03-17T04:49:32;4.57;;;2.90;;
65799;SDS011;52544;48.116;11.660;2024-03-17T04:52:00;4.80;;;2.85;;
65799;SDS011;52544;48.116;11.660;2024-03-17T04:54:25;4.40;;;3.03;;
65799;SDS011;52544;48.116;11.660;2024-03-17T04:56:50;4.57;;;3.00;;
65799;SDS011;52544;48.116;11.660;2024-03-17T04:59:16;5.32;;;3.30;;
65799;SDS011;52544;48.116;11.660;2024-03-17T05:01:41;5.50;;;3.35;;
65799;SDS011;52544;48.116;11.660;2024-03-17T05:04:07;5.07;;;2.83;;
65799;SDS011;52544;48.116;11.660;2024-03-17T05:06:32;5.13;;;3.15;;
65799;SDS011;52544;48.116;11.660;2024-03-17T05:08:58;7.65;;;3.47;;
65799;SDS011;52544;48.116;11.660;2024-03-17T05:11:23;7.15;;;3.28;;
65799;SDS011;52544;48.116;11.660;2024-03-17T05:13:51;5.18;;;3.30;;
65799;SDS011;52544;48.116;11.660;2024-03-17T05:16:17;4.70;;;3.10;;
65799;SDS011;52544;48.116;11.660;2024-03-17T05:18:42;6.70;;;3.05;;
65799;SDS011;52544;48.116;11.660;2024-03-17T05:21:08;6.43;;;3.30;;
65799;SDS011;52544;48.116;11.660;2024-03-17T05:23:34;7.32;;;3.50;;
65799;SDS011;52544;48.116;11.660;2024-03-17T05:26:01;6.90;;;3.30;;
65799;SDS011;52544;48.116;11.660;2024-03-17T05:28:27;6.80;;;3.08;;
65799;SDS011;52544;48.116;11.660;2024-03-17T05:30:54;7.50;;;3.25;;
65799;SDS011;52544;48.116;11.660;2024-03-17T05:33:22;5.70;;;3.20;;
65799;SDS011;52544;48.116;11.660;2024-03-17T05:35:51;5.25;;;3.22;;
65799;SDS011;52544;48.116;11.660;2024-03-17T05:38:21;6.28;;;3.25;;
65799;SDS011;52544;48.116;11.660;2024-03-17T05:40:53;8.48;;;3.58;;
65799;SDS011;52544;48.116;11.660;2024-03-17T05:43:26;5.35;;;3.03;;
65799;SDS011;52544;48.116;11.660;2024-03-17T05:45:59;5.07;;;3.08;;
65799;SDS011;52544;48.116;11.660;2024-03-17T05:48:31;5.88;;;3.30;;
65799;SDS011;52544;48.116;11.660;2024-03-17T05:50:57;5.60;;;3.10;;
65799;SDS011;52544;48.116;11.660;2024-03-17T05:53:23;6.38;;;3.47;;
65799;SDS011;52544;48.116;11.660;2024-03-17T05:55:51;5.03;;;3.22;;
65799;SDS011;52544;48.116;11.660;2024-03-17T05:58:17;7.35;;;3.50;;
65799;SDS011;52544;48.116;11.660;2024-03-17T06:00:43;5.68;;;3.05;;
65799;SDS011;52544;48.116;11.660;2024-03-17T06:03:08;6.13;;;3.20;;
65799;SDS011;52544;48.116;11.660;2024-03-17T06:05:38;5.43;;;3.40;;
65799;SDS011;52544;48.116;11.660;2024-03-17T06:08:07;6.30;;;3.40;;
65799;SDS011;52544;48.116;11.660;2024-03-17T06:10:34;6.13;;;3.28;;
65799;SDS011;52544;48.116;11.660;2024-03-17T06:13:01;6.15;;;3.17;;
65799;SDS011;52544;48.116;11.660;2024-03-17T06:15:28;7.22;;;3.35;;
65799;SDS011;52544;48.116;11.660;2024-03-17T06:17:53;4.93;;;3.40;;
65799;SDS011;52544;48.116;11.660;2024-03-17T06:20:23;8.70;;;3.75;;
65799;SDS011;52544;48.116;11.660;2024-03-17T06:22:55;8.13;;;3.25;;
65799;SDS011;52544;48.116;11.660;2024-03-17T06:25:22;4.93;;;3.60;;
65799;SDS011;52544;48.116;11.660;2024-03-17T06:27:50;7.80;;;3.75;;
65799;SDS011;52544;48.116;11.660;2024-03-17T06:30:16;5.78;;;3.67;;
65799;SDS011;52544;48.116;11.660;2024-03-17T06:32:43;7.18;;;3.78;;
65799;SDS011;52544;48.116;11.660;2024-03-17T06:35:12;5.75;;;3.67;;
65799;SDS011;52544;48.116;11.660;2024-03-17T06:37:40;7.63;;;3.85;;
65799;SDS011;52544;48.116;11.660;2024-03-17T06:40:10;5.88;;;3.42;;
65799;SDS011;52544;48.116;11.660;2024-03-17T06:42:38;7.07;;;3.90;;
65799;SDS011;52544;48.116;11.660;2024-03-17T06:45:04;5.80;;;3.58;;
65799;SDS011;52544;48.116;11.660;2024-03-17T06:47:30;5.68;;;3.33;;
65799;SDS011;52544;48.116;11.660;2024-03-17T06:49:56;6.55;;;4.00;;
65799;SDS011;52544;48.116;11.660;2024-03-17T06:52:21;7.75;;;4.18;;
65799;SDS011;52544;48.116;11.660;2024-03-17T06:54:47;7.13;;;4.05;;
65799;SDS011;52544;48.116;11.660;2024-03-17T06:57:15;8.15;;;3.90;;
65799;SDS011;52544;48.116;11.660;2024-03-17T06:59:40;6.03;;;3.80;;
65799;SDS011;52544;48.116;11.660;2024-03-17T07:02:06;7.35;;;3.78;;
65799;SDS011;52544;48.116;11.660;2024-03-17T07:04:32;7.95;;;4.15;;
65799;SDS011;52544;48.116;11.660;2024-03-17T07:06:57;8.00;;;4.60;;
65799;SDS011;52544;48.116;11.660;2024-03-17T07:09:23;6.53;;;3.78;;
65799;SDS011;52544;48.116;11.660;2024-03-17T07:11:49;6.85;;;3.83;;
65799;SDS011;52544;48.116;11.660;2024-03-17T07:14:14;8.30;;;3.65;;
65799;SDS011;52544;48.116;11.660;2024-03-17T07:16:40;8.93;;;4.22;;
65799;SDS011;52544;48.116;11.660;2024-03-17T07:19:05;7.90;;;4.30;;
65799;SDS011;52544;48.116;11.660;2024-03-17T07:21:30;9.43;;;3.90;;
65799;SDS011;52544;48.116;11.660;2024-03-17T07:23:59;7.57;;;3.95;;
65799;SDS011;52544;48.116;11.660;2024-03-17T07:26:29;5.97;;;3.90;;
65799;SDS011;52544;48.116;11.660;2024-03-17T07:28:55;6.60;;;3.90;;
65799;SDS011;52544;48.116;11.660;2024-03-17T07:31:20;5.28;;;3.83;;
65799;SDS011;52544;48.116;11.660;2024-03-17T07:33:46;7.20;;;3.50;;
65799;SDS011;52544;48.116;11.660;2024-03-17T07:36:11;7.05;;;3.65;;
65799;SDS011;52544;48.116;11.660;2024-03-17T07:38:37;7.75;;;3.88;;
65799;SDS011;52544;48.116;11.660;2024-03-17T07:41:03;6.88;;;3.58;;
65799;SDS011;52544;48.116;11.660;2024-03-17T07:43:33;5.03;;;3.40;;
65799;SDS011;52544;48.116;11.660;2024-03-17T07:46:06;8.32;;;3.58;;
65799;SDS011;52544;48.116;11.660;2024-03-17T07:48:35;5.72;;;3.47;;
65799;SDS011;52544;48.116;11.660;2024-03-17T07:51:05;5.10;;;3.42;;
65799;SDS011;52544;48.116;11.660;2024-03-17T07:53:32;6.70;;;3.45;;
65799;SDS011;52544;48.116;11.660;2024-03-17T07:58:24;4.55;;;3.28;;
65799;SDS011;52544;48.116;11.660;2024-03-17T08:00:51;5.18;;;3.40;;
65799;SDS011;52544;48.116;11.660;2024-03-17T08:03:17;4.30;;;2.80;;
65799;SDS011;52544;48.116;11.660;2024-03-17T08:05:43;5.38;;;3.10;;
65799;SDS011;52544;48.116;11.660;2024-03-17T08:08:13;6.53;;;3.38;;
65799;SDS011;52544;48.116;11.660;2024-03-17T08:10:38;5.80;;;3.35;;
65799;SDS011;52544;48.116;11.660;2024-03-17T08:13:04;5.85;;;2.88;;
65799;SDS011;52544;48.116;11.660;2024-03-17T08:15:30;3.67;;;2.65;;
65799;SDS011;52544;48.116;11.660;2024-03-17T08:17:55;4.90;;;3.30;;
65799;SDS011;52544;48.116;11.660;2024-03-17T08:20:21;3.80;;;2.50;;
65799;SDS011;52544;48.116;11.660;2024-03-17T08:22:46;4.43;;;2.50;;
65799;SDS011;52544;48.116;11.660;2024-03-17T08:25:12;4.45;;;2.60;;
65799;SDS011;52544;48.116;11.660;2024-03-17T08:27:37;4.18;;;2.72;;
65799;SDS011;52544;48.116;11.660;2024-03-17T08:30:02;7.03;;;3.03;;
65799;SDS011;52544;48.116;11.660;2024-03-17T08:32:28;4.68;;;2.85;;
65799;SDS011;52544;48.116;11.660;2024-03-17T08:34:54;4.18;;;2.60;;
65799;SDS011;52544;48.116;11.660;2024-03-17T08:37:20;3.50;;;2.45;;
65799;SDS011;52544;48.116;11.660;2024-03-17T08:39:46;4.65;;;2.60;;
65799;SDS011;52544;48.116;11.660;2024-03-17T08:42:12;3.70;;;2.60;;
65799;SDS011;52544;48.116;11.660;2024-03-17T08:44:37;3.92;;;2.50;;
65799;SDS011;52544;48.116;11.660;2024-03-17T08:47:03;3.05;;;2.20;;
65799;SDS011;52544;48.116;11.660;2024-03-17T08:49:29;4.13;;;2.53;;
65799;SDS011;52544;48.116;11.660;2024-03-17T08:51:54;2.97;;;1.95;;
65799;SDS011;52544;48.116;11.660;2024-03-17T08:54:19;3.65;;;2.55;;
65799;SDS011;52544;48.116;11.660;2024-03-17T08:56:45;3.65;;;2.30;;
65799;SDS011;52544;48.116;11.660;2024-03-17T08:59:10;4.38;;;2.40;;
65799;SDS011;52544;48.116;11.660;2024-03-17T09:01:37;3.28;;;2.17;;
65799;SDS011;52544;48.116;11.660;2024-03-17T09:04:03;3.65;;;1.92;;
65799;SDS011;52544;48.116;11.660;2024-03-17T09:06:28;2.28;;;1.70;;
65799;SDS011;52544;48.116;11.660;2024-03-17T09:08:55;2.08;;;1.73;;
65799;SDS011;52544;48.116;11.660;2024-03-17T09:11:20;5.78;;;2.72;;
65799;SDS011;52544;48.116;11.660;2024-03-17T09:13:50;3.40;;;1.90;;
65799;SDS011;52544;48.116;11.660;2024-03-17T09:16:16;2.55;;;1.75;;
65799;SDS011;52544;48.116;11.660;2024-03-17T09:18:43;5.55;;;1.90;;
65799;SDS011;52544;48.116;11.660;2024-03-17T09:21:09;2.45;;;1.77;;
65799;SDS011;52544;48.116;11.660;2024-03-17T09:23:35;2.83;;;1.63;;
65799;SDS011;52544;48.116;11.660;2024-03-17T09:28:31;2.22;;;1.58;;
65799;SDS011;52544;48.116;11.660;2024-03-17T09:30:57;4.28;;;1.60;;
65799;SDS011;52544;48.116;11.660;2024-03-17T09:33:24;5.35;;;2.63;;
65799;SDS011;52544;48.116;11.660;2024-03-17T09:35:53;2.45;;;1.33;;
65799;SDS011;52544;48.116;11.660;2024-03-17T09:38:19;2.15;;;1.42;;
65799;SDS011;52544;48.116;11.660;2024-03-17T09:40:48;10.13;;;5.70;;
65799;SDS011;52544;48.116;11.660;2024-03-17T09:43:25;3.17;;;2.10;;
65799;SDS011;52544;48.116;11.660;2024-03-17T09:45:51;3.97;;;1.33;;
65799;SDS011;52544;48.116;11.660;2024-03-17T09:48:26;2.50;;;1.70;;
65799;SDS011;52544;48.116;11.660;2024-03-17T09:50:54;4.47;;;1.73;;
65799;SDS011;52544;48.116;11.660;2024-03-17T09:55:51;2.95;;;2.10;;
65799;SDS011;52544;48.116;11.660;2024-03-17T09:58:18;2.97;;;2.20;;
65799;SDS011;52544;48.116;11.660;2024-03-17T10:00:44;2.50;;;1.70;;
65799;SDS011;52544;48.116;11.660;2024-03-17T10:03:10;3.70;;;1.70;;
65799;SDS011;52544;48.116;11.660;2024-03-17T10:05:35;1.48;;;1.38;;
65799;SDS011;52544;48.116;11.660;2024-03-17T10:08:01;3.40;;;1.65;;
65799;SDS011;52544;48.116;11.660;2024-03-17T10:10:27;6.68;;;1.75;;
65799;SDS011;52544;48.116;11.660;2024-03-17T10:12:52;1.73;;;1.42;;
65799;SDS011;52544;48.116;11.660;2024-03-17T10:15:18;4.10;;;2.08;;
65799;SDS011;52544;48.116;11.660;2024-03-17T10:17:45;2.63;;;1.85;;
65799;SDS011;52544;48.116;11.660;2024-03-17T10:25:32;3.17;;;1.38;;
65799;SDS011;52544;48.116;11.660;2024-03-17T10:27:58;1.88;;;1.15;;
65799;SDS011;52544;48.116;11.660;2024-03-17T10:30:25;3.00;;;1.35;;
65799;SDS011;52544;48.116;11.660;2024-03-17T10:33:00;5.75;;;3.17;;
65799;SDS011;52544;48.116;11.660;2024-03-17T10:35:27;2.10;;;1.20;;
65799;SDS011;52544;48.116;11.660;2024-03-17T10:37:55;3.15;;;1.20;;
65799;SDS011;52544;48.116;11.660;2024-03-17T10:40:23;2.50;;;1.35;;
65799;SDS011;52544;48.116;11.660;2024-03-17T10:42:49;2.83;;;1.90;;
65799;SDS011;52544;48.116;11.660;2024-03-17T10:45:14;3.60;;;1.50;;
65799;SDS011;52544;48.116;11.660;2024-03-17T10:47:41;1.83;;;1.20;;
65799;SDS011;52544;48.116;11.660;2024-03-17T10:50:16;2.45;;;1.40;;
65799;SDS011;52544;48.116;11.660;2024-03-17T10:52:49;4.80;;;2.05;;
65799;SDS011;52544;48.116;11.660;2024-03-17T10:55:25;3.13;;;1.17;;
65799;SDS011;52544;48.116;11.660;2024-03-17T10:57:52;2.38;;;1.02;;
65799;SDS011;52544;48.116;11.660;2024-03-17T11:00:19;3.08;;;1.50;;
65799;SDS011;52544;48.116;11.660;2024-03-17T11:02:47;4.38;;;1.60;;
65799;SDS011;52544;48.116;11.660;2024-03-17T11:05:33;2.50;;;1.70;;
65799;SDS011;52544;48.116;11.660;2024-03-17T11:08:00;3.88;;;1.40;;
65799;SDS011;52544;48.116;11.660;2024-03-17T11:10:28;2.70;;;1.42;;
65799;SDS011;52544;48.116;11.660;2024-03-17T11:12:58;1.73;;;1.10;;
65799;SDS011;52544;48.116;11.660;2024-03-17T11:20:35;3.65;;;1.30;;
65799;SDS011;52544;48.116;11.660;2024-03-17T11:23:02;2.63;;;1.50;;
65799;SDS011;52544;48.116;11.660;2024-03-17T11:27:56;2.65;;;1.48;;
65799;SDS011;52544;48.116;11.660;2024-03-17T11:38:57;6.28;;;1.73;;
65799;SDS011;52544;48.116;11.660;2024-03-17T11:41:42;1.92;;;1.27;;
65799;SDS011;52544;48.116;11.660;2024-03-17T11:47:05;1.13;;;1.02;;
65799;SDS011;52544;48.116;11.660;2024-03-17T11:52:09;5.85;;;1.10;;
65799;SDS011;52544;48.116;11.660;2024-03-17T11:54:39;3.17;;;1.20;;
65799;SDS011;52544;48.116;11.660;2024-03-17T11:57:07;2.75;;;1.40;;
65799;SDS011;52544;48.116;11.660;2024-03-17T11:59:37;1.98;;;1.00;;
65799;SDS011;52544;48.116;11.660;2024-03-17T12:02:17;1.52;;;1.10;;
65799;SDS011;52544;48.116;11.660;2024-03-17T12:04:47;5.40;;;1.13;;
65799;SDS011;52544;48.116;11.660;2024-03-17T12:07:16;3.63;;;1.10;;
65799;SDS011;52544;48.116;11.660;2024-03-17T12:09:43;2.30;;;1.40;;
65799;SDS011;52544;48.116;11.660;2024-03-17T12:12:22;3.08;;;1.17;;
65799;SDS011;52544;48.116;11.660;2024-03-17T12:15:00;2.67;;;1.00;;
65799;SDS011;52544;48.116;11.660;2024-03-17T12:17:26;4.38;;;1.40;;
65799;SDS011;52544;48.116;11.660;2024-03-17T12:19:51;1.67;;;0.90;;
65799;SDS011;52544;48.116;11.660;2024-03-17T12:22:18;2.20;;;0.93;;
65799;SDS011;52544;48.116;11.660;2024-03-17T12:24:47;1.80;;;0.98;;
65799;SDS011;52544;48.116;11.660;2024-03-17T12:27:17;2.63;;;1.20;;
65799;SDS011;52544;48.116;11.660;2024-03-17T12:29:53;1.65;;;0.90;;
65799;SDS011;52544;48.116;11.660;2024-03-17T12:32:20;1.73;;;1.08;;
65799;SDS011;52544;48.116;11.660;2024-03-17T12:34:49;2.33;;;1.10;;
65799;SDS011;52544;48.116;11.660;2024-03-17T12:37:17;3.47;;;0.88;;
65799;SDS011;52544;48.116;11.660;2024-03-17T12:39:44;1.73;;;0.88;;
65799;SDS011;52544;48.116;11.660;2024-03-17T12:42:10;2.50;;;0.95;;
65799;SDS011;52544;48.116;11.660;2024-03-17T12:47:18;4.40;;;1.02;;
65799;SDS011;52544;48.116;11.660;2024-03-17T12:49:46;4.05;;;1.02;;
65799;SDS011;52544;48.116;11.660;2024-03-17T12:52:33;1.60;;;1.02;;
65799;SDS011;52544;48.116;11.660;2024-03-17T12:54:59;3.72;;;1.20;;
65799;SDS011;52544;48.116;11.660;2024-03-17T12:57:43;3.08;;;1.05;;
65799;SDS011;52544;48.116;11.660;2024-03-17T13:00:28;2.05;;;0.77;;
65799;SDS011;52544;48.116;11.660;2024-03-17T13:03:00;1.40;;;0.77;;
65799;SDS011;52544;48.116;11.660;2024-03-17T13:05:25;1.27;;;0.90;;
65799;SDS011;52544;48.116;11.660;2024-03-17T13:07:51;3.38;;;1.05;;
65799;SDS011;52544;48.116;11.660;2024-03-17T13:10:19;1.48;;;1.00;;
65799;SDS011;52544;48.116;11.660;2024-03-17T13:12:45;3.53;;;0.90;;
65799;SDS011;52544;48.116;11.660;2024-03-17T13:15:14;3.75;;;1.33;;
65799;SDS011;52544;48.116;11.660;2024-03-17T13:17:42;3.92;;;2.50;;
65799;SDS011;52544;48.116;11.660;2024-03-17T13:20:11;2.42;;;1.30;;
65799;SDS011;52544;48.116;11.660;2024-03-17T13:22:40;2.92;;;1.35;;
65799;SDS011;52544;48.116;11.660;2024-03-17T13:25:16;5.60;;;1.42;;
65799;SDS011;52544;48.116;11.660;2024-03-17T13:27:44;2.25;;;1.10;;
65799;SDS011;52544;48.116;11.660;2024-03-17T13:30:11;4.57;;;1.30;;
65799;SDS011;52544;48.116;11.660;2024-03-17T13:32:37;3.42;;;1.20;;
65799;SDS011;52544;48.116;11.660;2024-03-17T13:35:05;2.05;;;1.20;;
65799;SDS011;52544;48.116;11.660;2024-03-17T13:37:31;2.92;;;1.30;;
65799;SDS011;52544;48.116;11.660;2024-03-17T13:39:56;1.80;;;1.02;;
65799;SDS011;52544;48.116;11.660;2024-03-17T13:42:22;4.25;;;1.40;;
65799;SDS011;52544;48.116;11.660;2024-03-17T13:44:47;3.05;;;1.20;;
65799;SDS011;52544;48.116;11.660;2024-03-17T13:47:16;4.38;;;1.50;;
65799;SDS011;52544;48.116;11.660;2024-03-17T13:49:43;2.28;;;1.20;;
65799;SDS011;52544;48.116;11.660;2024-03-17T13:52:09;5.78;;;1.40;;
65799;SDS011;52544;48.116;11.660;2024-03-17T13:54:34;3.03;;;1.02;;
65799;SDS011;52544;48.116;11.660;2024-03-17T13:57:00;1.85;;;1.13;;
65799;SDS011;52544;48.116;11.660;2024-03-17T13:59:27;4.25;;;1.30;;
65799;SDS011;52544;48.116;11.660;2024-03-17T14:01:53;4.70;;;1.10;;
65799;SDS011;52544;48.116;11.660;2024-03-17T14:04:18;2.92;;;1.40;;
65799;SDS011;52544;48.116;11.660;2024-03-17T14:06:44;2.67;;;1.20;;
65799;SDS011;52544;48.116;11.660;2024-03-17T14:09:19;1.40;;;1.20;;
65799;SDS011;52544;48.116;11.660;2024-03-17T14:11:45;2.95;;;1.20;;
65799;SDS011;52544;48.116;11.660;2024-03-17T14:14:11;3.65;;;1.30;;
65799;SDS011;52544;48.116;11.660;2024-03-17T14:16:37;2.80;;;0.98;;
65799;SDS011;52544;48.116;11.660;2024-03-17T14:19:03;3.90;;;1.10;;
65799;SDS011;52544;48.116;11.660;2024-03-17T14:21:28;2.50;;;0.98;;
65799;SDS011;52544;48.116;11.660;2024-03-17T14:23:54;3.03;;;1.05;;
65799;SDS011;52544;48.116;11.660;2024-03-17T14:26:20;3.20;;;1.50;;
65799;SDS011;52544;48.116;11.660;2024-03-17T14:28:47;3.53;;;1.83;;
65799;SDS011;52544;48.116;11.660;2024-03-17T14:31:13;3.80;;;1.50;;
65799;SDS011;52544;48.116;11.660;2024-03-17T14:33:39;2.03;;;1.10;;
65799;SDS011;52544;48.116;11.660;2024-03-17T14:36:04;1.33;;;1.02;;
65799;SDS011;52544;48.116;11.660;2024-03-17T14:38:31;2.65;;;1.20;;
65799;SDS011;52544;48.116;11.660;2024-03-17T14:40:57;2.33;;;1.20;;
65799;SDS011;52544;48.116;11.660;2024-03-17T14:43:22;2.63;;;1.30;;
65799;SDS011;52544;48.116;11.660;2024-03-17T14:45:48;1.90;;;1.10;;
65799;SDS011;52544;48.116;11.660;2024-03-17T14:48:14;2.85;;;1.30;;
65799;SDS011;52544;48.116;11.660;2024-03-17T14:50:39;3.78;;;1.20;;
65799;SDS011;52544;48.116;11.660;2024-03-17T14:53:05;3.03;;;1.30;;
65799;SDS011;52544;48.116;11.660;2024-03-17T14:55:31;1.75;;;1.15;;
65799;SDS011;52544;48.116;11.660;2024-03-17T14:57:57;2.95;;;1.23;;
65799;SDS011;52544;48.116;11.660;2024-03-17T15:00:22;5.63;;;1.30;;
65799;SDS011;52544;48.116;11.660;2024-03-17T15:02:50;4.47;;;1.55;;
65799;SDS011;52544;48.116;11.660;2024-03-17T15:05:17;2.13;;;1.02;;
65799;SDS011;52544;48.116;11.660;2024-03-17T15:07:47;98.65;;;40.03;;
65799;SDS011;52544;48.116;11.660;2024-03-17T15:10:16;355.92;;;142.30;;